createdAt,value
2019-01-27T00:01:07.690Z,99.90
2019-01-27T00:02:33.131Z,99.90
2019-01-27T00:03:58.566Z,99.90
2019-01-27T00:05:24.255Z,99.90
2019-01-27T00:06:49.686Z,99.90
2019-01-27T00:08:15.135Z,99.90
2019-01-27T00:09:40.535Z,99.90
2019-01-27T00:11:06.186Z,99.90
2019-01-27T00:12:31.614Z,99.90
2019-01-27T00:13:57.045Z,99.90
2019-01-27T00:15:22.667Z,99.90
2019-01-27T00:16:48.411Z,99.90
2019-01-27T00:18:14.015Z,99.90
2019-01-27T00:19:39.447Z,99.90
2019-01-27T00:21:05.114Z,99.90
2019-01-27T00:22:30.570Z,99.90
2019-01-27T00:23:56.091Z,99.90
2019-01-27T00:25:21.506Z,99.90
2019-01-27T00:26:46.958Z,99.90
2019-01-27T00:28:12.540Z,99.80
2019-01-27T00:29:37.963Z,99.50
2019-01-27T00:31:03.519Z,99.40
2019-01-27T00:32:28.937Z,99.40
2019-01-27T00:33:54.372Z,99.50
2019-01-27T00:35:19.956Z,99.80
2019-01-27T00:36:45.495Z,99.50
2019-01-27T00:38:11.088Z,99.50
2019-01-27T00:39:36.519Z,99.50
2019-01-27T00:41:02.038Z,99.60
2019-01-27T00:42:27.466Z,99.60
2019-01-27T00:43:52.890Z,99.70
2019-01-27T00:45:18.814Z,99.90
2019-01-27T00:46:44.323Z,99.90
2019-01-27T00:48:10.167Z,99.90
2019-01-27T00:49:35.606Z,99.90
2019-01-27T00:51:01.144Z,99.90
2019-01-27T00:52:26.873Z,99.90
2019-01-27T00:53:52.310Z,99.90
2019-01-27T00:55:20.015Z,99.90
2019-01-27T00:56:45.458Z,99.90
2019-01-27T00:58:11.095Z,99.70
2019-01-27T00:59:36.511Z,99.10
2019-01-27T01:01:02.217Z,98.80
2019-01-27T01:02:27.676Z,98.70
2019-01-27T01:03:53.196Z,98.70
2019-01-27T01:05:19.020Z,98.70
2019-01-27T01:06:45.163Z,99.00
2019-01-27T01:08:11.199Z,98.90
2019-01-27T01:09:36.708Z,98.80
2019-01-27T01:11:02.136Z,98.50
2019-01-27T01:12:27.587Z,98.50
2019-01-27T01:13:53.116Z,98.50
2019-01-27T01:15:19.347Z,98.50
2019-01-27T01:16:44.767Z,98.50
2019-01-27T01:18:10.308Z,98.40
2019-01-27T01:19:35.836Z,98.40
2019-01-27T01:21:01.535Z,98.40
2019-01-27T01:22:26.990Z,98.20
2019-01-27T01:23:52.411Z,98.20
2019-01-27T01:25:20.640Z,98.10
2019-01-27T01:26:46.194Z,98.20
2019-01-27T01:28:11.719Z,98.30
2019-01-27T01:29:37.234Z,98.60
2019-01-27T01:31:02.858Z,98.60
2019-01-27T01:32:28.292Z,98.80
2019-01-27T01:33:53.719Z,98.60
2019-01-27T01:35:19.358Z,98.40
2019-01-27T01:36:44.963Z,98.30
2019-01-27T01:38:10.578Z,98.60
2019-01-27T01:39:36.064Z,98.70
2019-01-27T01:41:01.468Z,98.60
2019-01-27T01:42:26.980Z,98.40
2019-01-27T01:43:52.417Z,98.30
2019-01-27T01:45:23.314Z,98.00
2019-01-27T01:46:48.731Z,97.80
2019-01-27T01:48:14.370Z,97.80
2019-01-27T01:49:39.785Z,97.80
2019-01-27T01:51:05.422Z,97.70
2019-01-27T01:52:33.629Z,97.70
2019-01-27T01:53:59.058Z,97.80
2019-01-27T01:55:24.471Z,97.90
2019-01-27T01:56:49.895Z,97.60
2019-01-27T01:58:15.315Z,97.80
2019-01-27T01:59:40.730Z,97.50
2019-01-27T02:01:06.581Z,97.20
2019-01-27T02:02:31.991Z,97.00
2019-01-27T02:03:57.434Z,96.90
2019-01-27T02:05:23.065Z,96.70
2019-01-27T02:06:48.499Z,96.60
2019-01-27T02:08:13.926Z,96.60
2019-01-27T02:09:39.346Z,96.60
2019-01-27T02:11:05.175Z,96.50
2019-01-27T02:12:30.847Z,96.40
2019-01-27T02:13:56.435Z,96.30
2019-01-27T02:16:08.787Z,96.30
2019-01-27T02:17:34.196Z,96.00
2019-01-27T02:18:59.901Z,95.90
2019-01-27T02:20:25.334Z,95.90
2019-01-27T02:21:50.840Z,96.00
2019-01-27T02:23:17.115Z,96.00
2019-01-27T02:24:42.564Z,95.80
2019-01-27T02:26:08.950Z,96.30
2019-01-27T02:27:34.365Z,95.90
2019-01-27T02:28:59.826Z,95.80
2019-01-27T02:30:25.448Z,95.60
2019-01-27T02:31:51.011Z,95.70
2019-01-27T02:33:16.515Z,96.30
2019-01-27T02:34:41.971Z,96.30
2019-01-27T02:36:07.742Z,96.50
2019-01-27T02:37:33.164Z,96.60
2019-01-27T02:38:58.635Z,96.40
2019-01-27T02:40:24.092Z,96.50
2019-01-27T02:41:49.542Z,96.60
2019-01-27T02:43:15.154Z,96.80
2019-01-27T02:44:40.586Z,97.00
2019-01-27T02:46:06.779Z,97.30
2019-01-27T02:47:32.273Z,97.30
2019-01-27T02:48:57.880Z,97.30
2019-01-27T02:50:23.346Z,97.30
2019-01-27T02:51:48.787Z,97.20
2019-01-27T02:53:14.392Z,97.30
2019-01-27T02:54:39.820Z,97.30
2019-01-27T02:56:05.915Z,97.40
2019-01-27T02:57:31.330Z,97.80
2019-01-27T02:58:56.744Z,97.90
2019-01-27T03:00:22.982Z,98.00
2019-01-27T03:01:48.607Z,97.90
2019-01-27T03:03:14.151Z,97.90
2019-01-27T03:04:39.566Z,97.70
2019-01-27T03:06:25.131Z,97.70
2019-01-27T03:07:50.839Z,97.70
2019-01-27T03:09:21.442Z,97.60
2019-01-27T03:10:50.673Z,97.60
2019-01-27T03:12:16.268Z,97.40
2019-01-27T03:13:41.764Z,97.10
2019-01-27T03:15:08.552Z,97.00
2019-01-27T03:16:33.953Z,96.80
2019-01-27T03:17:59.404Z,96.50
2019-01-27T03:19:24.906Z,96.30
2019-01-27T03:20:50.357Z,96.10
2019-01-27T03:22:15.787Z,95.90
2019-01-27T03:23:41.325Z,96.20
2019-01-27T03:25:09.126Z,95.60
2019-01-27T03:26:34.571Z,95.80
2019-01-27T03:28:00.104Z,96.10
2019-01-27T03:29:25.586Z,96.00
2019-01-27T03:30:51.028Z,96.20
2019-01-27T03:32:16.502Z,96.10
2019-01-27T03:33:41.923Z,96.30
2019-01-27T03:35:08.528Z,96.20
2019-01-27T03:36:34.084Z,96.10
2019-01-27T03:37:59.639Z,95.80
2019-01-27T03:39:25.140Z,95.60
2019-01-27T03:40:50.594Z,95.80
2019-01-27T03:42:16.251Z,95.60
2019-01-27T03:43:41.860Z,95.30
2019-01-27T03:45:08.148Z,95.30
2019-01-27T03:46:33.635Z,95.20
2019-01-27T03:47:59.035Z,95.20
2019-01-27T03:49:24.489Z,95.20
2019-01-27T03:50:50.019Z,95.30
2019-01-27T03:52:15.558Z,95.40
2019-01-27T03:53:41.013Z,95.20
2019-01-27T03:55:09.276Z,94.80
2019-01-27T03:56:34.726Z,94.90
2019-01-27T03:58:00.394Z,94.80
2019-01-27T03:59:25.991Z,94.90
2019-01-27T04:00:51.437Z,94.80
2019-01-27T04:02:16.862Z,94.90
2019-01-27T04:03:42.304Z,95.10
2019-01-27T04:05:08.022Z,94.90
2019-01-27T04:06:33.557Z,94.70
2019-01-27T04:07:58.972Z,94.90
2019-01-27T04:09:24.399Z,95.20
2019-01-27T04:10:49.827Z,95.00
2019-01-27T04:12:15.374Z,95.00
2019-01-27T04:13:40.838Z,95.00
2019-01-27T04:15:07.058Z,94.70
2019-01-27T04:16:32.576Z,94.90
2019-01-27T04:17:58.022Z,94.60
2019-01-27T04:19:23.569Z,94.50
2019-01-27T04:20:49.073Z,94.30
2019-01-27T04:22:14.528Z,94.30
2019-01-27T04:23:39.979Z,94.20
2019-01-27T04:25:05.627Z,94.20
2019-01-27T04:26:31.123Z,94.20
2019-01-27T04:27:56.660Z,94.00
2019-01-27T04:29:22.071Z,94.10
2019-01-27T04:30:47.603Z,94.10
2019-01-27T04:32:13.062Z,93.90
2019-01-27T04:33:38.512Z,93.90
2019-01-27T04:35:04.225Z,93.80
2019-01-27T04:36:29.723Z,93.90
2019-01-27T04:37:55.281Z,94.00
2019-01-27T04:39:20.769Z,94.10
2019-01-27T04:40:46.195Z,93.90
2019-01-27T04:42:11.606Z,94.10
2019-01-27T04:43:37.058Z,94.10
2019-01-27T04:45:02.471Z,93.60
2019-01-27T04:46:27.958Z,93.80
2019-01-27T04:47:53.512Z,93.80
2019-01-27T04:49:18.956Z,93.70
2019-01-27T04:50:44.572Z,93.50
2019-01-27T04:52:10.065Z,93.50
2019-01-27T04:53:35.628Z,93.40
2019-01-27T04:55:01.036Z,93.50
2019-01-27T04:56:26.482Z,93.50
2019-01-27T04:57:51.908Z,93.30
2019-01-27T04:59:17.393Z,93.00
2019-01-27T05:00:42.988Z,93.40
2019-01-27T05:02:08.515Z,93.30
2019-01-27T05:04:11.282Z,93.30
2019-01-27T05:05:36.881Z,92.90
2019-01-27T05:07:02.417Z,92.90
2019-01-27T05:08:31.793Z,92.70
2019-01-27T05:10:04.153Z,92.70
2019-01-27T05:11:29.954Z,92.80
2019-01-27T05:12:55.562Z,92.90
2019-01-27T05:14:21.015Z,92.80
2019-01-27T05:15:46.479Z,92.70
2019-01-27T05:17:15.938Z,92.80
2019-01-27T05:18:41.426Z,92.80
2019-01-27T05:20:08.166Z,92.80
2019-01-27T05:21:34.406Z,92.70
2019-01-27T05:23:00.109Z,92.70
2019-01-27T05:24:25.698Z,92.70
2019-01-27T05:25:51.111Z,92.70
2019-01-27T05:27:16.622Z,92.80
2019-01-27T05:28:42.152Z,92.90
2019-01-27T05:30:10.836Z,93.10
2019-01-27T05:31:36.434Z,92.80
2019-01-27T05:33:01.851Z,92.90
2019-01-27T05:34:27.280Z,92.90
2019-01-27T05:35:52.750Z,92.90
2019-01-27T05:37:18.258Z,92.80
2019-01-27T05:38:43.754Z,92.70
2019-01-27T05:40:10.586Z,92.50
2019-01-27T05:41:36.099Z,92.50
2019-01-27T05:43:01.602Z,92.60
2019-01-27T05:44:27.168Z,92.20
2019-01-27T05:45:52.613Z,92.40
2019-01-27T05:47:18.217Z,92.70
2019-01-27T05:48:43.627Z,92.80
2019-01-27T05:50:11.160Z,92.70
2019-01-27T05:51:36.609Z,92.60
2019-01-27T05:53:02.132Z,92.50
2019-01-27T05:54:27.628Z,92.60
2019-01-27T05:55:53.099Z,92.70
2019-01-27T05:57:18.592Z,92.80
2019-01-27T05:58:44.097Z,92.40
2019-01-27T06:00:17.546Z,92.00
2019-01-27T06:01:42.952Z,92.40
2019-01-27T06:03:08.393Z,92.50
2019-01-27T06:04:33.892Z,92.50
2019-01-27T06:05:59.344Z,92.60
2019-01-27T06:07:24.807Z,92.50
2019-01-27T06:08:50.412Z,92.40
2019-01-27T06:10:15.935Z,92.20
2019-01-27T06:11:41.519Z,92.20
2019-01-27T06:13:06.919Z,92.40
2019-01-27T06:14:32.438Z,92.60
2019-01-27T06:15:57.875Z,92.60
2019-01-27T06:17:23.288Z,92.80
2019-01-27T06:18:48.691Z,92.90
2019-01-27T06:20:14.616Z,92.90
2019-01-27T06:21:40.054Z,93.10
2019-01-27T06:23:05.759Z,93.00
2019-01-27T06:24:31.471Z,92.90
2019-01-27T06:25:56.991Z,92.60
2019-01-27T06:27:22.408Z,92.80
2019-01-27T06:28:47.809Z,92.90
2019-01-27T06:30:16.455Z,92.90
2019-01-27T06:31:41.907Z,92.80
2019-01-27T06:33:29.074Z,92.90
2019-01-27T06:34:54.579Z,93.00
2019-01-27T06:36:20.026Z,92.90
2019-01-27T06:37:45.739Z,93.00
2019-01-27T06:39:11.195Z,93.10
2019-01-27T06:40:36.804Z,93.10
2019-01-27T06:42:02.260Z,93.30
2019-01-27T06:43:27.823Z,93.60
2019-01-27T06:44:53.328Z,93.70
2019-01-27T06:46:18.749Z,93.80
2019-01-27T06:47:44.319Z,94.00
2019-01-27T06:49:09.823Z,94.20
2019-01-27T06:50:35.339Z,94.30
2019-01-27T06:52:00.790Z,94.40
2019-01-27T06:53:26.335Z,94.40
2019-01-27T06:54:55.083Z,94.40
2019-01-27T06:56:20.571Z,94.40
2019-01-27T06:57:46.104Z,94.40
2019-01-27T06:59:24.721Z,94.40
2019-01-27T07:00:54.552Z,94.40
2019-01-27T07:02:38.822Z,94.40
2019-01-27T07:04:18.319Z,94.40
2019-01-27T07:06:04.482Z,94.20
2019-01-27T07:07:58.378Z,94.20
2019-01-27T07:09:45.947Z,94.20
2019-01-27T07:11:23.263Z,94.00
2019-01-27T07:13:17.154Z,93.70
2019-01-27T07:15:15.646Z,93.50
2019-01-27T07:17:17.938Z,93.60
2019-01-27T07:19:13.869Z,93.50
2019-01-27T07:20:50.586Z,93.40
2019-01-27T07:22:26.939Z,93.10
2019-01-27T07:24:08.726Z,92.80
2019-01-27T07:25:43.526Z,92.80
2019-01-27T07:27:54.451Z,92.80
2019-01-27T07:30:04.992Z,92.90
2019-01-27T07:31:59.815Z,92.90
2019-01-27T07:33:52.792Z,93.40
2019-01-27T07:35:36.924Z,93.40
2019-01-27T07:37:19.698Z,93.70
2019-01-27T07:38:56.328Z,94.00
2019-01-27T07:40:55.872Z,94.40
2019-01-27T07:42:34.603Z,94.50
2019-01-27T07:44:30.824Z,94.80
2019-01-27T07:46:02.330Z,94.70
2019-01-27T07:47:40.311Z,94.60
2019-01-27T07:49:40.379Z,94.70
2019-01-27T07:51:26.980Z,94.80
2019-01-27T07:53:14.026Z,95.00
2019-01-27T07:54:57.271Z,95.00
2019-01-27T07:56:53.575Z,95.00
2019-01-27T07:58:53.151Z,95.00
2019-01-27T08:00:58.112Z,94.80
2019-01-27T08:02:42.391Z,94.60
2019-01-27T08:04:26.191Z,94.50
2019-01-27T08:06:16.424Z,94.60
2019-01-27T08:08:06.975Z,94.60
2019-01-27T08:09:59.924Z,94.60
2019-01-27T08:12:03.168Z,94.90
2019-01-27T08:13:37.786Z,95.00
2019-01-27T08:15:20.859Z,95.10
2019-01-27T08:43:37.416Z,95.50
2019-01-27T08:51:28.254Z,94.80
2019-01-27T08:53:11.511Z,94.50
2019-01-27T08:54:43.515Z,94.30
2019-01-27T08:56:13.743Z,94.50
2019-01-27T08:57:39.697Z,94.60
2019-01-27T08:59:07.036Z,95.20
2019-01-27T09:00:37.332Z,95.70
2019-01-27T09:04:25.077Z,95.60
2019-01-27T09:06:21.302Z,95.30
2019-01-27T09:07:56.851Z,95.20
2019-01-27T09:09:53.223Z,95.20
2019-01-27T09:13:41.613Z,95.40
2019-01-27T09:17:44.395Z,94.80
2019-01-27T09:19:39.726Z,94.60
2019-01-27T09:22:03.145Z,94.80
2019-01-27T09:23:50.419Z,94.80
2019-01-27T09:25:44.312Z,95.30
2019-01-27T09:27:51.431Z,95.50
2019-01-27T09:29:41.246Z,95.30
2019-01-27T09:31:28.822Z,95.20
2019-01-27T09:33:15.684Z,95.20
2019-01-27T09:35:02.744Z,95.10
2019-01-27T09:36:53.303Z,95.20
2019-01-27T09:38:40.360Z,95.30
2019-01-27T09:40:19.380Z,95.00
2019-01-27T09:42:06.413Z,94.90
2019-01-27T09:43:56.551Z,95.00
2019-01-27T09:45:37.519Z,94.70
2019-01-27T09:47:12.855Z,94.40
2019-01-27T09:48:47.573Z,94.20
2019-01-27T09:50:40.951Z,93.80
2019-01-27T09:52:21.062Z,93.60
2019-01-27T09:54:17.187Z,93.20
2019-01-27T09:56:07.274Z,93.20
2019-01-27T09:58:03.799Z,93.20
2019-01-27T09:59:56.051Z,93.40
2019-01-27T10:01:46.104Z,93.50
2019-01-27T10:03:33.935Z,93.80
2019-01-27T10:05:17.391Z,94.00
2019-01-27T10:07:13.517Z,94.10
2019-01-27T10:08:48.336Z,94.20
2019-01-27T10:10:34.529Z,94.30
2019-01-27T10:12:21.553Z,94.30
2019-01-27T10:14:24.268Z,94.50
2019-01-27T10:16:06.927Z,94.80
2019-01-27T10:17:51.226Z,95.30
2019-01-27T10:19:23.938Z,95.30
2019-01-27T10:21:11.396Z,95.70
2019-01-27T10:22:54.111Z,95.80
2019-01-27T10:24:37.020Z,95.90
2019-01-27T10:26:24.076Z,95.60
2019-01-27T10:28:07.748Z,95.30
2019-01-27T10:29:52.671Z,95.10
2019-01-27T10:31:33.434Z,95.40
2019-01-27T10:33:17.779Z,95.30
2019-01-27T10:35:17.502Z,95.30
2019-01-27T10:37:03.330Z,95.20
2019-01-27T10:38:50.437Z,95.60
2019-01-27T10:40:39.865Z,95.70
2019-01-27T10:42:21.021Z,95.60
2019-01-27T10:44:04.208Z,95.80
2019-01-27T10:45:41.670Z,95.80
2019-01-27T10:47:29.103Z,95.60
2019-01-27T10:49:04.362Z,95.70
2019-01-27T10:50:50.434Z,95.10
2019-01-27T10:52:37.941Z,95.50
2019-01-27T10:54:11.871Z,95.50
2019-01-27T10:55:43.889Z,95.60
2019-01-27T10:57:28.135Z,95.50
2019-01-27T10:59:01.364Z,95.60
2019-01-27T11:00:51.671Z,95.50
2019-01-27T11:02:25.858Z,95.70
2019-01-27T11:04:08.976Z,95.30
2019-01-27T11:05:52.069Z,95.30
2019-01-27T11:07:36.383Z,95.50
2019-01-27T11:09:19.713Z,95.80
2019-01-27T11:10:57.139Z,95.60
2019-01-27T11:12:53.416Z,95.40
2019-01-27T11:14:50.105Z,95.10
2019-01-27T11:16:37.287Z,94.40
2019-01-27T11:18:43.523Z,94.10
2019-01-27T11:20:28.641Z,94.00
2019-01-27T11:22:13.910Z,94.10
2019-01-27T11:24:00.841Z,93.80
2019-01-27T11:26:03.272Z,93.60
2019-01-27T11:27:50.093Z,94.00
2019-01-27T11:29:34.745Z,93.70
2019-01-27T11:31:37.487Z,93.40
2019-01-27T11:33:20.149Z,93.30
2019-01-27T11:35:02.971Z,92.50
2019-01-27T11:36:46.385Z,92.00
2019-01-27T11:38:29.160Z,90.80
2019-01-27T11:40:12.521Z,90.30
2019-01-27T11:41:55.494Z,90.00
2019-01-27T11:43:30.593Z,86.90
2019-01-27T11:45:26.934Z,85.80
2019-01-27T11:47:11.392Z,85.40
2019-01-27T11:48:45.108Z,83.30
2019-01-27T11:50:44.586Z,83.30
2019-01-27T11:52:34.931Z,82.40
2019-01-27T11:54:00.344Z,82.00
2019-01-27T11:55:27.997Z,82.00
2019-01-27T11:56:53.772Z,81.70
2019-01-27T11:58:19.246Z,81.30
2019-01-27T11:59:44.624Z,79.20
2019-01-27T12:01:10.620Z,77.90
2019-01-27T12:02:36.078Z,76.70
2019-01-27T12:04:01.535Z,75.10
2019-01-27T12:05:28.922Z,76.40
2019-01-27T12:06:54.767Z,75.10
2019-01-27T12:08:20.175Z,75.10
2019-01-27T12:09:45.608Z,73.10
2019-01-27T12:11:11.357Z,73.60
2019-01-27T12:12:36.864Z,74.30
2019-01-27T12:14:02.461Z,73.40
2019-01-27T12:15:28.246Z,72.90
2019-01-27T12:16:53.757Z,71.00
2019-01-27T12:18:19.416Z,72.50
2019-01-27T12:19:45.023Z,72.70
2019-01-27T12:21:10.673Z,72.00
2019-01-27T12:22:36.340Z,72.10
2019-01-27T12:24:01.929Z,71.50
2019-01-27T12:25:27.589Z,69.70
2019-01-27T12:26:53.197Z,69.20
2019-01-27T12:28:18.779Z,69.10
2019-01-27T12:29:44.204Z,68.60
2019-01-27T12:31:09.729Z,67.00
2019-01-27T12:32:35.156Z,68.00
2019-01-27T12:34:00.776Z,67.30
2019-01-27T12:35:28.634Z,66.00
2019-01-27T12:36:54.302Z,65.30
2019-01-27T12:38:19.971Z,65.20
2019-01-27T12:39:45.407Z,65.20
2019-01-27T12:41:11.150Z,64.30
2019-01-27T12:42:36.664Z,64.00
2019-01-27T12:44:02.439Z,63.60
2019-01-27T12:45:27.924Z,62.30
2019-01-27T12:46:53.521Z,62.20
2019-01-27T12:48:18.928Z,61.60
2019-01-27T12:49:44.332Z,60.70
2019-01-27T12:51:09.991Z,60.60
2019-01-27T12:52:35.757Z,60.10
2019-01-27T12:54:01.307Z,60.30
2019-01-27T12:55:27.036Z,60.50
2019-01-27T12:56:52.524Z,60.80
2019-01-27T12:58:18.300Z,61.30
2019-01-27T12:59:43.862Z,62.10
2019-01-27T13:01:12.201Z,62.30
2019-01-27T13:02:37.649Z,64.00
2019-01-27T13:04:03.224Z,65.20
2019-01-27T13:05:28.640Z,66.10
2019-01-27T13:06:54.170Z,66.50
2019-01-27T13:08:19.747Z,66.40
2019-01-27T13:09:45.187Z,67.40
2019-01-27T13:11:10.731Z,67.40
2019-01-27T13:12:40.658Z,67.30
2019-01-27T13:14:06.247Z,68.10
2019-01-27T13:15:40.865Z,67.80
2019-01-27T13:17:07.631Z,68.00
2019-01-27T13:18:33.704Z,68.10
2019-01-27T13:19:59.617Z,67.90
2019-01-27T13:21:25.031Z,67.40
2019-01-27T13:22:50.696Z,66.80
2019-01-27T13:24:16.149Z,64.90
2019-01-27T13:25:41.718Z,65.20
2019-01-27T13:27:07.154Z,64.80
2019-01-27T13:28:32.823Z,65.90
2019-01-27T13:30:01.246Z,66.60
2019-01-27T13:31:27.120Z,65.70
2019-01-27T13:32:52.781Z,63.20
2019-01-27T13:34:18.354Z,62.70
2019-01-27T13:35:43.907Z,63.00
2019-01-27T13:37:11.278Z,61.20
2019-01-27T13:38:37.081Z,60.20
2019-01-27T13:40:02.711Z,60.60
2019-01-27T13:41:28.387Z,60.40
2019-01-27T13:42:54.166Z,59.50
2019-01-27T13:44:19.658Z,59.40
2019-01-27T13:45:45.180Z,58.80
2019-01-27T13:47:10.651Z,58.40
2019-01-27T13:48:36.381Z,57.40
2019-01-27T13:50:02.099Z,57.10
2019-01-27T13:51:27.907Z,56.50
2019-01-27T13:52:53.533Z,55.90
2019-01-27T13:54:19.029Z,55.30
2019-01-27T13:55:44.559Z,56.40
2019-01-27T13:57:14.647Z,57.20
2019-01-27T13:58:40.059Z,58.40
2019-01-27T14:00:25.644Z,58.50
2019-01-27T14:01:51.232Z,58.70
2019-01-27T14:03:16.792Z,59.20
2019-01-27T14:04:48.404Z,60.00
2019-01-27T14:06:09.687Z,59.60
2019-01-27T14:07:35.196Z,59.50
2019-01-27T14:09:00.765Z,59.90
2019-01-27T14:10:27.627Z,60.30
2019-01-27T14:11:53.609Z,59.90
2019-01-27T14:13:19.150Z,59.70
2019-01-27T14:14:44.830Z,59.70
2019-01-27T14:16:10.351Z,59.80
2019-01-27T14:17:35.887Z,59.50
2019-01-27T14:19:01.592Z,59.50
2019-01-27T14:20:27.141Z,60.20
2019-01-27T14:21:52.640Z,59.50
2019-01-27T14:23:18.084Z,58.60
2019-01-27T14:24:43.755Z,58.30
2019-01-27T14:26:09.239Z,58.60
2019-01-27T14:27:34.860Z,59.20
2019-01-27T14:29:00.335Z,59.50
2019-01-27T14:30:28.391Z,59.20
2019-01-27T14:31:53.999Z,58.90
2019-01-27T14:33:19.494Z,59.50
2019-01-27T14:34:45.125Z,60.30
2019-01-27T14:36:10.575Z,60.70
2019-01-27T14:37:36.235Z,61.10
2019-01-27T14:39:01.763Z,61.30
2019-01-27T14:40:28.751Z,61.70
2019-01-27T14:41:54.327Z,62.30
2019-01-27T14:43:19.751Z,62.60
2019-01-27T14:44:45.308Z,62.30
2019-01-27T14:46:29.878Z,62.90
2019-01-27T14:47:55.638Z,63.30
2019-01-27T14:49:21.139Z,64.00
2019-01-27T14:50:48.604Z,64.10
2019-01-27T14:52:14.092Z,64.30
2019-01-27T14:53:39.550Z,64.70
2019-01-27T14:55:05.982Z,64.70
2019-01-27T14:56:31.558Z,64.70
2019-01-27T14:57:57.940Z,64.20
2019-01-27T14:59:24.283Z,65.60
2019-01-27T15:00:49.836Z,65.00
2019-01-27T15:02:15.363Z,65.10
2019-01-27T15:03:40.935Z,65.00
2019-01-27T15:05:08.429Z,64.90
2019-01-27T15:06:34.178Z,65.30
2019-01-27T15:08:00.336Z,65.50
2019-01-27T15:09:25.892Z,65.20
2019-01-27T15:10:51.539Z,65.50
2019-01-27T15:12:17.043Z,65.60
2019-01-27T15:13:42.550Z,66.00
2019-01-27T15:15:10.347Z,65.90
2019-01-27T15:16:35.778Z,65.50
2019-01-27T15:18:01.357Z,65.40
2019-01-27T15:19:26.865Z,66.10
2019-01-27T15:20:56.466Z,66.20
2019-01-27T15:22:22.046Z,66.80
2019-01-27T15:23:47.508Z,66.90
2019-01-27T15:25:12.948Z,67.10
2019-01-27T15:26:38.409Z,66.40
2019-01-27T15:28:03.871Z,66.90
2019-01-27T15:29:29.334Z,67.30
2019-01-27T15:30:54.775Z,67.40
2019-01-27T15:32:20.375Z,67.70
2019-01-27T15:33:45.919Z,67.90
2019-01-27T15:35:13.601Z,68.20
2019-01-27T15:36:38.841Z,68.60
2019-01-27T15:38:04.501Z,68.90
2019-01-27T15:39:29.962Z,69.30
2019-01-27T15:40:55.735Z,69.40
2019-01-27T15:42:21.307Z,69.30
2019-01-27T15:43:48.702Z,69.70
2019-01-27T15:45:16.884Z,70.50
2019-01-27T15:46:42.419Z,71.40
2019-01-27T15:48:08.117Z,71.60
2019-01-27T15:49:33.723Z,71.90
2019-01-27T15:50:59.727Z,72.10
2019-01-27T15:52:25.532Z,72.30
2019-01-27T15:53:51.056Z,72.20
2019-01-27T15:55:17.736Z,72.20
2019-01-27T15:56:43.181Z,72.30
2019-01-27T15:58:08.832Z,73.00
2019-01-27T15:59:35.978Z,72.80
2019-01-27T16:01:01.754Z,72.90
2019-01-27T16:02:27.216Z,72.80
2019-01-27T16:03:52.695Z,73.00
2019-01-27T16:05:19.871Z,73.00
2019-01-27T16:06:46.081Z,72.70
2019-01-27T16:08:11.781Z,72.80
2019-01-27T16:09:37.192Z,72.60
2019-01-27T16:11:02.862Z,72.40
2019-01-27T16:12:28.498Z,72.00
2019-01-27T16:13:54.172Z,72.10
2019-01-27T16:15:22.709Z,72.20
2019-01-27T16:16:48.396Z,72.20
2019-01-27T16:18:14.063Z,72.70
2019-01-27T16:19:39.660Z,72.90
2019-01-27T16:21:05.344Z,73.00
2019-01-27T16:22:30.780Z,73.00
2019-01-27T16:23:58.847Z,73.00
2019-01-27T16:25:24.309Z,73.20
2019-01-27T16:26:49.948Z,73.20
2019-01-27T16:28:15.596Z,73.20
2019-01-27T16:29:55.998Z,72.70
2019-01-27T16:31:40.259Z,72.70
2019-01-27T16:33:09.505Z,71.70
2019-01-27T16:34:41.765Z,61.70
2019-01-27T16:36:07.303Z,55.10
2019-01-27T16:37:32.999Z,54.50
2019-01-27T16:38:58.602Z,52.90
2019-01-27T16:40:24.194Z,50.70
2019-01-27T16:41:49.721Z,50.70
2019-01-27T16:43:15.192Z,51.90
2019-01-27T16:44:40.651Z,51.80
2019-01-27T16:46:06.315Z,51.00
2019-01-27T16:47:31.763Z,47.80
2019-01-27T16:48:57.284Z,49.10
2019-01-27T16:50:23.007Z,46.60
2019-01-27T16:51:49.383Z,47.40
2019-01-27T16:53:15.299Z,46.20
2019-01-27T16:54:40.798Z,43.20
2019-01-27T16:56:06.778Z,44.90
2019-01-27T16:57:32.215Z,44.70
2019-01-27T16:58:59.471Z,43.70
2019-01-27T17:00:27.423Z,44.90
2019-01-27T17:01:53.025Z,43.60
2019-01-27T17:03:18.728Z,43.50
2019-01-27T17:04:44.197Z,44.20
2019-01-27T17:06:09.863Z,43.30
2019-01-27T17:07:35.365Z,43.70
2019-01-27T17:09:00.799Z,42.90
2019-01-27T17:10:26.806Z,41.80
2019-01-27T17:11:52.295Z,41.30
2019-01-27T17:13:17.915Z,40.60
2019-01-27T17:14:43.386Z,40.80
2019-01-27T17:16:09.579Z,40.80
2019-01-27T17:17:35.038Z,41.30
2019-01-27T17:19:00.507Z,41.30
2019-01-27T17:20:26.345Z,41.20
2019-01-27T17:21:51.837Z,41.70
2019-01-27T17:23:17.345Z,41.30
2019-01-27T17:24:42.804Z,41.70
2019-01-27T17:26:08.374Z,41.60
2019-01-27T17:27:33.973Z,42.10
2019-01-27T17:28:59.469Z,42.00
2019-01-27T17:30:25.153Z,41.70
2019-01-27T17:31:50.835Z,42.50
2019-01-27T17:33:16.593Z,42.70
2019-01-27T17:34:42.024Z,43.30
2019-01-27T17:36:08.710Z,43.00
2019-01-27T17:37:34.212Z,43.00
2019-01-27T17:38:59.842Z,43.60
2019-01-27T17:40:38.736Z,43.50
2019-01-27T17:42:19.031Z,43.40
2019-01-27T17:43:50.101Z,43.80
2019-01-27T17:45:16.886Z,43.40
2019-01-27T17:46:42.386Z,43.30
2019-01-27T17:48:08.143Z,43.50
2019-01-27T17:49:33.600Z,43.40
2019-01-27T17:50:59.192Z,43.20
2019-01-27T17:52:24.647Z,43.00
2019-01-27T17:54:00.825Z,43.00
2019-01-27T17:55:43.096Z,43.30
2019-01-27T17:57:30.312Z,43.20
2019-01-27T17:59:23.632Z,43.40
2019-01-27T18:01:06.779Z,43.70
2019-01-27T18:02:43.507Z,43.50
2019-01-27T18:04:26.536Z,44.20
2019-01-27T18:06:06.583Z,44.40
2019-01-27T18:07:53.695Z,44.00
2019-01-27T18:09:40.579Z,43.20
2019-01-27T18:11:26.843Z,43.70
2019-01-27T18:13:09.857Z,43.40
2019-01-27T18:14:37.857Z,43.70
2019-01-27T18:16:04.602Z,43.50
2019-01-27T18:17:30.070Z,43.40
2019-01-27T18:18:55.591Z,43.10
2019-01-27T18:20:21.022Z,42.70
2019-01-27T18:21:46.478Z,42.70
2019-01-27T18:23:12.051Z,42.80
2019-01-27T18:24:37.534Z,42.80
2019-01-27T18:26:03.059Z,42.60
2019-01-27T18:27:28.632Z,42.60
2019-01-27T18:28:54.180Z,43.30
2019-01-27T18:30:22.588Z,42.90
2019-01-27T18:31:48.186Z,42.70
2019-01-27T18:33:13.755Z,42.40
2019-01-27T18:34:39.410Z,42.80
2019-01-27T18:36:05.724Z,42.60
2019-01-27T18:37:31.161Z,43.20
2019-01-27T18:38:56.623Z,42.70
2019-01-27T18:40:22.498Z,43.00
2019-01-27T18:41:48.043Z,43.50
2019-01-27T18:43:13.832Z,42.80
2019-01-27T18:44:39.792Z,42.80
2019-01-27T18:46:05.369Z,43.00
2019-01-27T18:47:31.039Z,42.80
2019-01-27T18:48:56.564Z,43.70
2019-01-27T18:50:22.314Z,43.00
2019-01-27T18:51:47.894Z,42.50
2019-01-27T18:53:35.516Z,43.00
2019-01-27T18:55:20.164Z,43.00
2019-01-27T18:57:04.412Z,42.80
2019-01-27T18:58:57.851Z,43.00
2019-01-27T19:00:37.267Z,42.90
2019-01-27T19:02:15.555Z,42.70
2019-01-27T19:03:59.084Z,42.70
2019-01-27T19:05:30.650Z,42.70
2019-01-27T19:07:13.921Z,42.90
2019-01-27T19:08:57.839Z,42.60
2019-01-27T19:10:33.078Z,43.00
2019-01-27T19:12:15.225Z,43.10
2019-01-27T19:14:17.850Z,42.60
2019-01-27T19:16:04.881Z,42.60
2019-01-27T19:18:10.887Z,42.70
2019-01-27T19:19:53.843Z,42.60
2019-01-27T19:21:44.416Z,42.50
2019-01-27T19:23:20.207Z,43.20
2019-01-27T19:25:02.113Z,43.60
2019-01-27T19:26:52.422Z,43.50
2019-01-27T19:28:30.055Z,43.40
2019-01-27T19:30:14.590Z,42.70
2019-01-27T19:31:58.940Z,42.40
2019-01-27T19:33:41.943Z,42.00
2019-01-27T19:35:27.225Z,42.60
2019-01-27T19:37:09.888Z,42.90
2019-01-27T19:39:04.974Z,43.30
2019-01-27T19:40:58.491Z,43.50
2019-01-27T19:42:39.380Z,44.00
2019-01-27T19:44:24.039Z,43.30
2019-01-27T19:46:00.805Z,43.40
2019-01-27T19:47:45.091Z,43.20
2019-01-27T19:49:28.449Z,42.40
2019-01-27T19:51:02.471Z,42.50
2019-01-27T19:52:52.379Z,42.70
2019-01-27T19:54:39.419Z,42.70
2019-01-27T19:56:22.875Z,43.20
2019-01-27T19:58:19.344Z,43.20
2019-01-27T20:00:06.583Z,42.80
2019-01-27T20:01:54.074Z,43.10
2019-01-27T20:03:47.264Z,43.80
2019-01-27T20:05:28.155Z,44.70
2019-01-27T20:07:29.074Z,44.80
2019-01-27T20:09:19.606Z,44.40
2019-01-27T20:11:02.677Z,45.40
2019-01-27T20:12:59.051Z,45.70
2019-01-27T20:14:42.231Z,46.00
2019-01-27T20:16:35.924Z,45.60
2019-01-27T20:18:20.604Z,44.90